createdAt,value
2023-04-08T00:02:48.244Z,19.25
2023-04-08T00:07:49.761Z,20.15
2023-04-08T00:12:51.318Z,17.60
2023-04-08T00:17:54.789Z,22.27
2023-04-08T00:22:56.408Z,19.05
2023-04-08T00:27:57.877Z,18.55
2023-04-08T00:32:59.487Z,19.52
2023-04-08T00:38:01.760Z,22.58
2023-04-08T00:43:03.342Z,21.08
2023-04-08T00:48:05.452Z,20.52
2023-04-08T00:53:07.008Z,19.90
2023-04-08T00:58:08.703Z,22.20
2023-04-08T01:03:33.349Z,19.52
2023-04-08T01:08:36.978Z,20.05
2023-04-08T01:13:40.348Z,21.55
2023-04-08T01:18:43.619Z,19.75
2023-04-08T01:24:04.234Z,29.73
2023-04-08T01:29:06.260Z,21.25
2023-04-08T01:34:08.212Z,22.23
2023-04-08T01:39:09.839Z,18.83
2023-04-08T01:44:11.547Z,19.35
2023-04-08T01:49:13.693Z,19.27
2023-04-08T01:54:15.720Z,19.35
2023-04-08T01:59:17.549Z,21.95
2023-04-08T02:04:19.199Z,20.17
2023-04-08T02:09:21.741Z,19.88
2023-04-08T02:14:23.388Z,17.65
2023-04-08T02:19:27.797Z,18.30
2023-04-08T02:24:29.744Z,18.35
2023-04-08T02:29:32.969Z,14.98
2023-04-08T02:34:36.471Z,17.90
2023-04-08T02:39:38.020Z,16.65
2023-04-08T02:44:39.439Z,15.98
2023-04-08T02:49:41.070Z,16.02
2023-04-08T02:54:42.666Z,16.13
2023-04-08T02:59:44.261Z,17.83
2023-04-08T03:04:45.868Z,15.27
2023-04-08T03:09:47.386Z,15.73
2023-04-08T03:14:49.558Z,17.65
2023-04-08T03:19:51.325Z,15.85
2023-04-08T03:24:52.821Z,17.65
2023-04-08T03:29:54.396Z,15.45
2023-04-08T03:34:56.025Z,17.75
2023-04-08T03:39:57.535Z,15.30
2023-04-08T03:44:59.178Z,14.10
2023-04-08T03:50:00.770Z,14.48
2023-04-08T03:55:02.257Z,15.20
2023-04-08T04:00:03.843Z,18.00
2023-04-08T04:05:05.563Z,15.15
2023-04-08T04:10:07.436Z,15.63
2023-04-08T04:15:09.079Z,17.10
2023-04-08T04:20:10.986Z,15.90
2023-04-08T04:25:12.552Z,17.83
2023-04-08T04:30:16.762Z,16.42
2023-04-08T04:35:18.438Z,18.50
2023-04-08T04:40:19.998Z,14.80
2023-04-08T04:45:21.672Z,16.75
2023-04-08T04:50:23.763Z,16.38
2023-04-08T04:55:25.815Z,16.17
2023-04-08T05:00:27.288Z,15.55
2023-04-08T05:05:28.833Z,15.32
2023-04-08T05:10:30.537Z,18.80
2023-04-08T05:15:32.468Z,20.70
2023-04-08T05:20:34.042Z,18.80
2023-04-08T05:25:35.587Z,16.42
2023-04-08T05:30:37.102Z,18.33
2023-04-08T05:35:40.787Z,20.38
2023-04-08T05:40:42.439Z,21.88
2023-04-08T05:45:43.919Z,22.00
2023-04-08T05:50:45.767Z,21.45
2023-04-08T05:55:47.467Z,20.08
2023-04-08T06:00:49.080Z,24.40
2023-04-08T06:05:50.565Z,21.80
2023-04-08T06:10:52.198Z,22.85
2023-04-08T06:15:53.708Z,20.80
2023-04-08T06:20:55.329Z,22.25
2023-04-08T06:25:57.570Z,23.48
2023-04-08T06:30:59.381Z,24.55
2023-04-08T06:36:04.558Z,23.20
2023-04-08T06:41:06.941Z,21.27
2023-04-08T06:46:08.490Z,22.88
2023-04-08T06:51:10.061Z,26.75
2023-04-08T06:56:11.591Z,22.95
2023-04-08T07:01:13.172Z,20.90
2023-04-08T07:06:17.893Z,21.63
2023-04-08T07:11:19.504Z,21.95
2023-04-08T07:16:21.158Z,23.00
2023-04-08T07:21:22.720Z,24.95
2023-04-08T07:26:24.247Z,24.38
2023-04-08T07:31:25.963Z,24.63
2023-04-08T07:36:28.378Z,22.17
2023-04-08T07:41:29.988Z,23.13
2023-04-08T07:46:31.812Z,22.02
2023-04-08T07:51:33.700Z,22.85
2023-04-08T07:56:35.188Z,25.10
2023-04-08T08:01:36.996Z,25.75
2023-04-08T08:06:38.690Z,25.77
2023-04-08T08:11:40.957Z,23.33
2023-04-08T08:16:42.665Z,23.33
2023-04-08T08:21:44.232Z,25.92
2023-04-08T08:26:47.254Z,24.80
2023-04-08T08:31:48.802Z,24.63
2023-04-08T08:36:50.948Z,22.20
2023-04-08T08:41:52.440Z,23.80
2023-04-08T08:46:53.971Z,24.35
2023-04-08T08:51:56.042Z,21.77
2023-04-08T08:56:57.728Z,22.85
2023-04-08T09:01:59.317Z,21.50
2023-04-08T09:07:11.099Z,26.15
2023-04-08T09:12:14.169Z,24.52
2023-04-08T09:17:17.310Z,21.25
2023-04-08T09:22:19.064Z,23.88
2023-04-08T09:27:33.644Z,23.50
2023-04-08T09:32:48.904Z,27.33
2023-04-08T09:37:51.066Z,24.67
2023-04-08T09:42:53.764Z,24.05
2023-04-08T09:48:07.850Z,23.83
2023-04-08T09:53:32.213Z,21.13
2023-04-08T09:58:42.858Z,20.92
2023-04-08T10:03:48.524Z,23.02
2023-04-08T10:08:51.113Z,21.67
2023-04-08T10:13:53.105Z,25.10
2023-04-08T10:18:58.131Z,23.98
2023-04-08T10:24:01.511Z,25.23
2023-04-08T10:29:18.020Z,28.42
2023-04-08T10:34:20.582Z,28.55
2023-04-08T10:39:22.065Z,25.02
2023-04-08T10:44:24.636Z,27.73
2023-04-08T10:49:33.285Z,28.80
2023-04-08T10:54:35.197Z,24.08
2023-04-08T10:59:36.993Z,26.15
2023-04-08T11:04:42.390Z,27.50
2023-04-08T11:09:44.313Z,23.40
2023-04-08T11:14:47.288Z,27.30
2023-04-08T11:19:50.541Z,29.15
2023-04-08T11:24:52.332Z,27.63
2023-04-08T11:29:55.417Z,28.45
2023-04-08T11:34:56.965Z,28.48
2023-04-08T11:39:58.539Z,29.98
2023-04-08T11:45:00.210Z,30.20
2023-04-08T11:50:02.012Z,28.10
2023-04-08T11:55:04.666Z,28.27
2023-04-08T12:00:07.167Z,24.00
2023-04-08T12:05:08.887Z,26.40
2023-04-08T12:10:11.216Z,24.38
2023-04-08T12:15:12.738Z,24.40
2023-04-08T12:20:14.343Z,24.13
2023-04-08T12:25:15.871Z,23.77
2023-04-08T12:30:17.331Z,22.13
2023-04-08T12:35:18.813Z,21.92
2023-04-08T12:40:21.860Z,20.73
2023-04-08T12:45:23.443Z,22.05
2023-04-08T12:50:24.980Z,19.45
2023-04-08T12:55:26.660Z,20.08
2023-04-08T13:00:28.236Z,20.10
2023-04-08T13:05:42.706Z,17.23
2023-04-08T13:10:45.324Z,17.40
2023-04-08T13:15:47.250Z,19.80
2023-04-08T13:20:48.740Z,20.02
2023-04-08T13:25:50.242Z,17.55
2023-04-08T13:30:51.821Z,19.13
2023-04-08T13:35:53.629Z,19.08
2023-04-08T13:40:55.883Z,18.35
2023-04-08T13:45:57.911Z,15.93
2023-04-08T13:50:59.355Z,14.90
2023-04-08T13:56:01.026Z,14.50
2023-04-08T14:01:02.884Z,15.60
2023-04-08T14:06:04.511Z,15.10
2023-04-08T14:11:06.427Z,14.20
2023-04-08T14:16:08.007Z,16.95
2023-04-08T14:21:09.585Z,16.45
2023-04-08T14:26:11.655Z,15.73
2023-04-08T14:31:13.909Z,15.85
2023-04-08T14:36:15.564Z,16.92
2023-04-08T14:41:17.158Z,15.25
2023-04-08T14:46:18.952Z,16.10
2023-04-08T14:51:20.532Z,17.70
2023-04-08T14:56:22.053Z,16.48
2023-04-08T15:01:23.624Z,14.65
2023-04-08T15:06:26.651Z,16.38
2023-04-08T15:11:28.246Z,16.15
2023-04-08T15:16:29.924Z,17.63
2023-04-08T15:21:31.774Z,15.90
2023-04-08T15:26:33.312Z,18.20
2023-04-08T15:31:35.343Z,18.05
2023-04-08T15:36:37.818Z,16.40
2023-04-08T15:41:39.352Z,18.00
2023-04-08T15:46:41.061Z,16.15
2023-04-08T15:51:44.661Z,16.85
2023-04-08T15:56:49.129Z,19.58
2023-04-08T16:01:50.743Z,18.95
2023-04-08T16:06:52.338Z,18.25
2023-04-08T16:11:54.048Z,18.92
2023-04-08T16:16:55.600Z,18.42
2023-04-08T16:21:57.377Z,18.67
2023-04-08T16:26:58.927Z,21.65
2023-04-08T16:32:01.652Z,18.42
2023-04-08T16:37:03.143Z,20.65
2023-04-08T16:42:05.351Z,20.40
2023-04-08T16:47:07.107Z,21.13
2023-04-08T16:52:08.681Z,22.13
2023-04-08T16:57:10.242Z,24.88
2023-04-08T17:02:12.120Z,20.90
2023-04-08T17:07:14.629Z,20.80
2023-04-08T17:12:16.305Z,22.33
2023-04-08T17:17:17.798Z,23.08
2023-04-08T17:22:19.285Z,19.95
2023-04-08T17:27:21.362Z,23.15
2023-04-08T17:32:23.146Z,25.73
2023-04-08T17:37:24.692Z,23.05
2023-04-08T17:42:26.447Z,23.70
2023-04-08T17:47:27.966Z,24.20
2023-04-08T17:52:29.483Z,23.17
2023-04-08T17:57:30.940Z,24.65
2023-04-08T18:02:32.516Z,22.20
2023-04-08T18:07:34.476Z,22.13
2023-04-08T18:12:36.048Z,20.70
2023-04-08T18:17:37.565Z,19.60
2023-04-08T18:22:39.057Z,19.60
2023-04-08T18:27:40.946Z,19.45
2023-04-08T18:32:42.536Z,20.55
2023-04-08T18:37:43.990Z,20.85
2023-04-08T18:42:45.590Z,20.90
2023-04-08T18:47:47.109Z,19.58
2023-04-08T18:52:49.827Z,20.23
2023-04-08T18:57:51.451Z,23.25
2023-04-08T19:02:53.022Z,22.88
2023-04-08T19:07:54.743Z,19.75
2023-04-08T19:12:56.211Z,22.85
2023-04-08T19:17:59.161Z,21.45
2023-04-08T19:23:00.805Z,22.67
2023-04-08T19:28:02.332Z,22.58
2023-04-08T19:33:08.696Z,21.33
2023-04-08T19:38:10.302Z,23.48
2023-04-08T19:43:11.844Z,23.80
2023-04-08T19:48:13.361Z,22.98
2023-04-08T19:53:15.100Z,27.92
2023-04-08T19:58:16.696Z,26.67
2023-04-08T20:03:18.326Z,26.00
2023-04-08T20:08:19.864Z,25.02
2023-04-08T20:13:22.621Z,25.45
2023-04-08T20:18:24.265Z,26.83
2023-04-08T20:23:26.778Z,27.73
2023-04-08T20:28:28.247Z,24.67
2023-04-08T20:33:29.770Z,31.35
2023-04-08T20:38:35.273Z,28.23
2023-04-08T20:43:36.915Z,33.20
2023-04-08T20:48:39.364Z,34.70
2023-04-08T20:53:42.088Z,30.85
2023-04-08T20:58:45.706Z,34.53
2023-04-08T21:03:47.295Z,32.20
2023-04-08T21:08:49.903Z,35.65
2023-04-08T21:13:51.711Z,39.60
2023-04-08T21:18:53.342Z,36.08
2023-04-08T21:23:55.022Z,38.75
2023-04-08T21:28:56.659Z,37.75
2023-04-08T21:33:58.288Z,34.08
2023-04-08T21:38:59.860Z,42.03
2023-04-08T21:44:01.472Z,40.42
2023-04-08T21:49:03.150Z,41.65
2023-04-08T21:54:04.676Z,42.00
2023-04-08T21:59:06.169Z,42.20
2023-04-08T22:04:07.797Z,42.55
2023-04-08T22:09:09.317Z,41.30
2023-04-08T22:14:10.853Z,40.63
2023-04-08T22:19:12.316Z,44.38
2023-04-08T22:24:13.859Z,50.50
2023-04-08T22:29:15.840Z,48.40
2023-04-08T22:34:17.353Z,53.00
2023-04-08T22:39:18.823Z,46.72
2023-04-08T22:44:20.485Z,47.42
2023-04-08T22:49:21.988Z,44.63
2023-04-08T22:54:23.464Z,53.00
2023-04-08T22:59:25.486Z,52.58
2023-04-08T23:04:27.107Z,53.38
2023-04-08T23:09:28.722Z,48.67
2023-04-08T23:14:30.411Z,49.03
2023-04-08T23:19:31.849Z,48.25
2023-04-08T23:24:35.263Z,47.30
2023-04-08T23:29:36.994Z,46.92
2023-04-08T23:34:38.508Z,48.63
2023-04-08T23:39:40.098Z,45.75
2023-04-08T23:44:41.704Z,49.60
2023-04-08T23:49:43.288Z,45.65
2023-04-08T23:54:44.771Z,51.28
2023-04-08T23:59:47.002Z,50.25
